createdAt,value
2023-02-23T00:01:51.867Z,100.00
2023-02-23T00:04:21.331Z,100.00
2023-02-23T00:06:48.157Z,100.00
2023-02-23T00:09:24.758Z,100.00
2023-02-23T00:11:58.415Z,100.00
2023-02-23T00:14:27.532Z,100.00
2023-02-23T00:16:55.847Z,100.00
2023-02-23T00:19:24.663Z,100.00
2023-02-23T00:21:51.839Z,100.00
2023-02-23T00:24:20.008Z,100.00
2023-02-23T00:26:58.947Z,100.00
2023-02-23T00:29:25.836Z,100.00
2023-02-23T00:31:56.060Z,100.00
2023-02-23T00:34:24.045Z,100.00
2023-02-23T00:36:55.028Z,100.00
2023-02-23T00:39:29.177Z,100.00
2023-02-23T00:41:57.213Z,100.00
2023-02-23T00:44:24.930Z,100.00
2023-02-23T00:46:52.831Z,100.00
2023-02-23T00:49:23.377Z,100.00
2023-02-23T00:51:50.576Z,100.00
2023-02-23T00:54:18.800Z,100.00
2023-02-23T00:56:46.740Z,100.00
2023-02-23T00:59:14.337Z,100.00
2023-02-23T01:01:42.094Z,100.00
2023-02-23T01:04:10.281Z,100.00
2023-02-23T01:06:38.096Z,100.00
2023-02-23T01:09:10.649Z,100.00
2023-02-23T01:11:38.518Z,100.00
2023-02-23T01:14:05.258Z,100.00
2023-02-23T01:16:34.311Z,100.00
2023-02-23T01:19:04.440Z,100.00
2023-02-23T01:21:35.061Z,100.00
2023-02-23T01:24:02.356Z,100.00
2023-02-23T01:26:35.968Z,100.00
2023-02-23T01:29:08.707Z,100.00
2023-02-23T01:31:37.732Z,100.00
2023-02-23T01:34:06.029Z,100.00
2023-02-23T01:36:39.060Z,100.00
2023-02-23T01:39:08.873Z,100.00
2023-02-23T01:41:36.978Z,100.00
2023-02-23T01:44:13.141Z,100.00
2023-02-23T01:46:45.474Z,100.00
2023-02-23T01:49:20.089Z,100.00
2023-02-23T01:51:55.716Z,100.00
2023-02-23T01:54:29.010Z,100.00
2023-02-23T01:56:58.450Z,100.00
2023-02-23T01:59:46.660Z,100.00
2023-02-23T02:02:14.466Z,100.00
2023-02-23T02:04:45.373Z,100.00
2023-02-23T02:07:14.330Z,100.00
2023-02-23T02:10:03.352Z,100.00
2023-02-23T02:12:29.996Z,100.00
2023-02-23T02:15:00.093Z,100.00
2023-02-23T02:17:32.865Z,100.00
2023-02-23T02:20:14.762Z,100.00
2023-02-23T02:23:21.692Z,100.00
2023-02-23T02:26:10.097Z,100.00
2023-02-23T02:29:08.998Z,100.00
2023-02-23T02:32:12.613Z,100.00
2023-02-23T02:35:02.819Z,100.00
2023-02-23T02:37:56.878Z,100.00
2023-02-23T02:40:32.433Z,100.00
2023-02-23T02:43:21.259Z,100.00
2023-02-23T02:45:52.903Z,100.00
2023-02-23T02:48:44.721Z,100.00
2023-02-23T02:51:24.340Z,100.00
2023-02-23T02:53:50.908Z,100.00
2023-02-23T02:56:21.319Z,100.00
2023-02-23T02:58:50.310Z,100.00
2023-02-23T03:01:37.287Z,100.00
2023-02-23T03:04:40.494Z,100.00
2023-02-23T03:07:44.366Z,100.00
2023-02-23T03:10:41.981Z,100.00
2023-02-23T03:14:02.900Z,100.00
2023-02-23T03:17:11.415Z,100.00
2023-02-23T03:20:08.758Z,100.00
2023-02-23T03:23:06.092Z,100.00
2023-02-23T03:26:05.005Z,100.00
2023-02-23T03:29:04.878Z,100.00
2023-02-23T03:32:00.554Z,100.00
2023-02-23T03:34:59.816Z,100.00
2023-02-23T03:37:49.458Z,100.00
2023-02-23T03:40:35.179Z,100.00
2023-02-23T03:43:27.105Z,100.00
2023-02-23T03:46:16.225Z,100.00
2023-02-23T03:49:05.280Z,100.00
2023-02-23T03:51:54.533Z,100.00
2023-02-23T03:54:47.264Z,100.00
2023-02-23T03:57:37.940Z,100.00
2023-02-23T04:00:28.020Z,100.00
2023-02-23T04:03:15.815Z,100.00
2023-02-23T04:06:03.734Z,100.00
2023-02-23T04:08:54.719Z,100.00
2023-02-23T04:11:49.898Z,100.00
2023-02-23T04:14:26.675Z,100.00
2023-02-23T04:16:54.368Z,100.00
2023-02-23T04:19:21.031Z,100.00
2023-02-23T04:21:47.705Z,100.00
2023-02-23T04:24:14.368Z,100.00
2023-02-23T04:26:40.988Z,100.00
2023-02-23T04:29:07.654Z,100.00
2023-02-23T04:31:34.623Z,100.00
2023-02-23T04:34:01.317Z,100.00
2023-02-23T04:36:28.254Z,100.00
2023-02-23T04:38:54.847Z,100.00
2023-02-23T04:41:21.535Z,100.00
2023-02-23T04:43:48.461Z,100.00
2023-02-23T04:46:15.169Z,100.00
2023-02-23T04:48:41.807Z,100.00
2023-02-23T04:51:08.482Z,100.00
2023-02-23T04:53:35.248Z,100.00
2023-02-23T04:56:01.973Z,100.00
2023-02-23T04:58:28.770Z,100.00
2023-02-23T05:00:55.427Z,100.00
2023-02-23T05:03:22.177Z,100.00
2023-02-23T05:05:48.871Z,100.00
2023-02-23T05:08:15.534Z,100.00
2023-02-23T05:10:42.169Z,100.00
2023-02-23T05:13:08.772Z,100.00
2023-02-23T05:15:35.411Z,100.00
2023-02-23T05:18:02.025Z,100.00
2023-02-23T05:20:28.656Z,100.00
2023-02-23T05:22:55.254Z,100.00
2023-02-23T05:25:21.866Z,100.00
2023-02-23T05:27:48.505Z,100.00
2023-02-23T05:30:15.542Z,100.00
2023-02-23T05:32:42.162Z,100.00
2023-02-23T05:35:09.266Z,100.00
2023-02-23T05:37:35.960Z,100.00
2023-02-23T05:40:02.670Z,100.00
2023-02-23T05:42:29.423Z,100.00
2023-02-23T05:44:56.036Z,100.00
2023-02-23T05:47:22.637Z,100.00
2023-02-23T05:49:49.247Z,100.00
2023-02-23T05:52:16.310Z,100.00
2023-02-23T05:54:42.952Z,100.00
2023-02-23T05:57:09.619Z,100.00
2023-02-23T05:59:36.286Z,100.00
2023-02-23T06:02:05.179Z,100.00
2023-02-23T06:04:32.978Z,100.00
2023-02-23T06:06:59.557Z,100.00
2023-02-23T06:09:26.426Z,100.00
2023-02-23T06:11:53.077Z,100.00
2023-02-23T06:14:19.930Z,100.00
2023-02-23T06:16:48.892Z,100.00
2023-02-23T06:19:15.795Z,100.00
2023-02-23T06:21:42.484Z,100.00
2023-02-23T06:24:09.593Z,100.00
2023-02-23T06:26:36.370Z,99.03
2023-02-23T06:29:02.982Z,98.84
2023-02-23T06:31:30.555Z,97.57
2023-02-23T06:33:57.181Z,95.52
2023-02-23T06:36:23.844Z,94.02
2023-02-23T06:38:50.560Z,89.64
2023-02-23T06:41:18.168Z,87.86
2023-02-23T06:43:45.474Z,84.25
2023-02-23T06:46:12.063Z,82.02
2023-02-23T06:48:38.851Z,80.28
2023-02-23T06:51:05.727Z,78.56
2023-02-23T06:53:33.534Z,78.01
2023-02-23T06:56:00.433Z,77.63
2023-02-23T06:58:28.404Z,77.26
2023-02-23T07:00:56.865Z,78.14
2023-02-23T07:03:24.318Z,78.27
2023-02-23T07:05:52.363Z,79.09
2023-02-23T07:08:19.092Z,79.66
2023-02-23T07:10:46.439Z,79.55
2023-02-23T07:13:13.121Z,79.04
2023-02-23T07:15:41.195Z,79.06
2023-02-23T07:18:08.566Z,78.46
2023-02-23T07:20:35.222Z,78.64
2023-02-23T07:23:02.098Z,78.24
2023-02-23T07:25:29.692Z,77.76
2023-02-23T07:27:58.959Z,76.92
2023-02-23T07:30:26.245Z,77.11
2023-02-23T07:32:54.105Z,78.51
2023-02-23T07:35:21.046Z,79.31
2023-02-23T07:37:47.715Z,79.16
2023-02-23T07:40:14.520Z,80.94
2023-02-23T07:42:41.244Z,81.00
2023-02-23T07:45:10.154Z,80.72
2023-02-23T07:47:38.438Z,79.83
2023-02-23T07:50:09.800Z,80.43
2023-02-23T07:52:38.490Z,81.47
2023-02-23T07:55:06.214Z,79.83
2023-02-23T07:57:33.751Z,78.12
2023-02-23T08:00:00.973Z,77.37
2023-02-23T08:02:32.329Z,77.42
2023-02-23T08:04:59.635Z,76.92
2023-02-23T08:07:26.431Z,76.85
2023-02-23T08:09:53.630Z,74.72
2023-02-23T08:12:20.276Z,73.36
2023-02-23T08:14:46.938Z,73.65
2023-02-23T08:17:13.647Z,73.99
2023-02-23T08:19:40.387Z,72.20
2023-02-23T08:22:09.839Z,72.20
2023-02-23T08:24:38.264Z,73.47
2023-02-23T08:27:05.112Z,73.46
2023-02-23T08:29:31.963Z,73.29
2023-02-23T08:31:58.816Z,73.95
2023-02-23T08:34:25.757Z,73.04
2023-02-23T08:36:53.884Z,73.21
2023-02-23T08:39:21.266Z,73.42
2023-02-23T08:41:47.886Z,70.38
2023-02-23T08:44:14.533Z,69.81
2023-02-23T08:46:41.244Z,69.69
2023-02-23T08:49:11.424Z,69.23
2023-02-23T08:51:38.343Z,69.31
2023-02-23T08:54:04.988Z,69.17
2023-02-23T08:56:31.832Z,67.19
2023-02-23T08:58:58.599Z,65.29
2023-02-23T09:01:25.407Z,64.60
2023-02-23T09:03:52.192Z,64.86
2023-02-23T09:06:22.250Z,65.30
2023-02-23T09:08:49.341Z,65.23
2023-02-23T09:11:16.038Z,66.27
2023-02-23T09:13:42.921Z,65.82
2023-02-23T09:16:09.663Z,65.74
2023-02-23T09:18:37.402Z,65.38
2023-02-23T09:21:10.907Z,66.36
2023-02-23T09:23:38.291Z,65.25
2023-02-23T09:26:06.817Z,66.67
2023-02-23T09:28:35.317Z,66.61
2023-02-23T09:31:07.316Z,66.67
2023-02-23T09:33:34.242Z,65.34
2023-02-23T09:36:05.610Z,64.51
2023-02-23T09:38:32.524Z,64.83
2023-02-23T09:40:59.640Z,65.69
2023-02-23T09:43:54.668Z,65.41
2023-02-23T09:46:39.356Z,65.99
2023-02-23T09:49:14.684Z,66.51
2023-02-23T09:51:46.434Z,66.18
2023-02-23T09:54:16.533Z,65.01
2023-02-23T09:56:51.296Z,66.25
2023-02-23T09:59:21.970Z,65.54
2023-02-23T10:01:48.670Z,65.17
2023-02-23T10:04:24.891Z,65.82
2023-02-23T10:06:59.969Z,65.48
2023-02-23T10:09:26.570Z,66.01
2023-02-23T10:12:03.886Z,65.21
2023-02-23T10:14:40.599Z,64.85
2023-02-23T10:17:33.255Z,66.07
2023-02-23T10:20:18.699Z,65.28
2023-02-23T10:22:48.859Z,65.09
2023-02-23T10:25:24.674Z,65.71
2023-02-23T10:27:52.277Z,64.42
2023-02-23T10:30:26.195Z,65.28
2023-02-23T10:33:24.260Z,64.95
2023-02-23T10:36:11.194Z,65.48
2023-02-23T10:38:39.886Z,65.24
2023-02-23T10:41:07.074Z,65.54
2023-02-23T10:43:33.790Z,64.13
2023-02-23T10:46:00.488Z,64.84
2023-02-23T10:48:31.958Z,65.53
2023-02-23T10:51:02.700Z,64.53
2023-02-23T10:53:37.628Z,64.04
2023-02-23T10:56:12.602Z,64.50
2023-02-23T10:58:52.820Z,65.35
2023-02-23T11:01:36.213Z,64.29
2023-02-23T11:04:29.255Z,64.40
2023-02-23T11:07:18.027Z,63.78
2023-02-23T11:09:47.715Z,63.58
2023-02-23T11:12:35.848Z,64.09
2023-02-23T11:15:39.377Z,63.54
2023-02-23T11:18:21.718Z,62.07
2023-02-23T11:20:49.015Z,62.27
2023-02-23T11:23:23.190Z,61.94
2023-02-23T11:25:55.598Z,61.66
2023-02-23T11:28:30.195Z,61.51
2023-02-23T11:31:04.161Z,60.99
2023-02-23T11:33:35.994Z,62.82
2023-02-23T11:36:30.819Z,61.34
2023-02-23T11:39:15.906Z,59.52
2023-02-23T11:41:43.096Z,58.97
2023-02-23T11:44:21.268Z,59.09
2023-02-23T11:46:48.396Z,60.55
2023-02-23T11:49:21.396Z,60.18
2023-02-23T11:51:50.647Z,60.21
2023-02-23T11:54:25.892Z,61.22
2023-02-23T11:56:55.214Z,61.17
2023-02-23T11:59:31.480Z,60.97
2023-02-23T12:02:19.622Z,60.31
2023-02-23T12:04:49.649Z,60.42
2023-02-23T12:07:44.042Z,60.36
2023-02-23T12:10:19.856Z,62.81
2023-02-23T12:13:01.667Z,61.12
2023-02-23T12:15:28.313Z,61.76
2023-02-23T12:18:37.989Z,62.02
2023-02-23T12:21:43.184Z,62.61
2023-02-23T12:24:20.787Z,63.91
2023-02-23T12:26:59.198Z,63.71
2023-02-23T12:29:49.190Z,63.21
2023-02-23T12:32:22.155Z,62.56
2023-02-23T12:34:55.232Z,63.37
2023-02-23T12:37:40.554Z,63.06
2023-02-23T12:40:39.070Z,62.44
2023-02-23T12:43:15.327Z,62.23
2023-02-23T12:45:49.203Z,61.71
2023-02-23T12:48:43.230Z,61.88
2023-02-23T12:51:47.545Z,61.53
2023-02-23T12:54:16.531Z,61.35
2023-02-23T12:56:57.671Z,61.86
2023-02-23T13:00:01.529Z,61.56
2023-02-23T13:02:48.504Z,61.71
2023-02-23T13:05:28.610Z,62.06
2023-02-23T13:08:13.585Z,61.34
2023-02-23T13:11:08.857Z,61.59
2023-02-23T13:13:57.599Z,60.92
2023-02-23T13:16:37.768Z,62.77
2023-02-23T13:19:22.707Z,61.49
2023-02-23T13:22:12.685Z,61.11
2023-02-23T13:24:43.989Z,59.54
2023-02-23T13:27:18.343Z,59.98
2023-02-23T13:29:50.806Z,60.59
2023-02-23T13:32:36.290Z,60.57
2023-02-23T13:35:13.211Z,60.32
2023-02-23T13:37:47.323Z,60.53
2023-02-23T13:40:26.680Z,60.26
2023-02-23T13:43:07.081Z,60.11
2023-02-23T13:45:46.057Z,60.76
2023-02-23T13:48:23.890Z,61.43
2023-02-23T13:50:53.826Z,61.26
2023-02-23T13:53:42.507Z,61.39
2023-02-23T13:56:16.045Z,62.15
2023-02-23T13:58:51.209Z,61.78
2023-02-23T14:01:23.063Z,62.96
2023-02-23T14:03:56.425Z,62.26
2023-02-23T14:06:26.385Z,62.52
2023-02-23T14:09:00.950Z,62.19
2023-02-23T14:11:37.062Z,62.77
2023-02-23T14:14:04.720Z,62.32
2023-02-23T14:16:31.917Z,62.14
2023-02-23T14:19:29.538Z,62.72
2023-02-23T14:22:05.203Z,63.46
2023-02-23T14:24:32.157Z,64.00
2023-02-23T14:27:07.235Z,63.36
2023-02-23T14:29:41.585Z,64.22
2023-02-23T14:32:11.159Z,64.20
2023-02-23T14:34:47.276Z,65.51
2023-02-23T14:37:34.168Z,65.02
2023-02-23T14:40:24.871Z,65.44
2023-02-23T14:42:53.756Z,65.09
2023-02-23T14:45:28.847Z,65.99
2023-02-23T14:48:01.822Z,65.25
2023-02-23T14:50:39.162Z,65.51
2023-02-23T14:53:13.854Z,64.90
2023-02-23T14:55:43.355Z,65.20
2023-02-23T14:58:26.094Z,65.14
2023-02-23T15:00:52.783Z,65.52
2023-02-23T15:03:19.813Z,65.38
2023-02-23T15:05:52.589Z,65.34
2023-02-23T15:08:23.234Z,65.43
2023-02-23T15:11:06.736Z,65.57
2023-02-23T15:13:40.256Z,65.09
2023-02-23T15:16:18.217Z,65.64
2023-02-23T15:18:45.121Z,65.72
2023-02-23T15:21:16.457Z,65.96
2023-02-23T15:23:49.590Z,65.62
2023-02-23T15:26:39.132Z,65.72
2023-02-23T15:29:16.227Z,66.04
2023-02-23T15:31:51.271Z,66.44
2023-02-23T15:34:30.532Z,66.40
2023-02-23T15:37:04.803Z,66.23
2023-02-23T15:39:48.893Z,66.55
2023-02-23T15:42:22.106Z,67.18
2023-02-23T15:44:55.624Z,67.15
2023-02-23T15:47:28.659Z,67.23
2023-02-23T15:50:12.957Z,67.54
2023-02-23T15:52:47.883Z,67.86
2023-02-23T15:55:22.708Z,68.46
2023-02-23T15:58:00.308Z,68.42
2023-02-23T16:00:36.710Z,68.42
2023-02-23T16:03:06.557Z,68.47
2023-02-23T16:05:46.524Z,68.54
2023-02-23T16:08:23.354Z,68.58
2023-02-23T16:10:55.096Z,68.78
2023-02-23T16:13:22.455Z,69.28
2023-02-23T16:15:50.108Z,68.78
2023-02-23T16:18:20.164Z,68.60
2023-02-23T16:20:56.085Z,68.73
2023-02-23T16:23:55.432Z,68.74
2023-02-23T16:26:52.127Z,68.47
2023-02-23T16:29:26.169Z,68.86
2023-02-23T16:31:59.920Z,68.97
2023-02-23T16:34:26.936Z,69.36
2023-02-23T16:37:03.913Z,69.47
2023-02-23T16:39:34.288Z,69.33
2023-02-23T16:42:00.947Z,69.15
2023-02-23T16:44:41.438Z,69.00
2023-02-23T16:47:09.374Z,68.92
2023-02-23T16:49:36.022Z,69.00
2023-02-23T16:52:12.787Z,69.00
2023-02-23T16:54:39.397Z,69.77
2023-02-23T16:57:18.940Z,69.08
2023-02-23T16:59:50.572Z,69.19
2023-02-23T17:02:18.771Z,70.01
2023-02-23T17:04:49.109Z,69.71
2023-02-23T17:07:16.655Z,69.19
2023-02-23T17:09:43.449Z,69.23
2023-02-23T17:12:12.605Z,69.65
2023-02-23T17:14:39.930Z,69.76
2023-02-23T17:17:06.786Z,69.78
2023-02-23T17:19:33.397Z,69.61
2023-02-23T17:22:00.051Z,70.00
2023-02-23T17:24:26.695Z,70.30
2023-02-23T17:26:55.487Z,70.32
2023-02-23T17:29:22.598Z,71.05
2023-02-23T17:31:49.849Z,71.25
2023-02-23T17:34:16.692Z,71.68
2023-02-23T17:36:43.356Z,71.79
2023-02-23T17:39:10.591Z,71.18
2023-02-23T17:41:37.533Z,71.61
2023-02-23T17:44:05.887Z,71.46
2023-02-23T17:46:32.645Z,70.84
2023-02-23T17:48:59.369Z,70.64
2023-02-23T17:51:26.539Z,70.94
2023-02-23T17:53:53.253Z,70.54
2023-02-23T17:56:20.249Z,70.41
2023-02-23T17:58:47.991Z,70.60
2023-02-23T18:01:14.737Z,70.37
2023-02-23T18:03:41.387Z,70.71
2023-02-23T18:06:13.459Z,70.92
2023-02-23T18:08:42.425Z,71.23
2023-02-23T18:11:09.729Z,71.03
2023-02-23T18:13:37.105Z,71.26
2023-02-23T18:16:09.334Z,71.48
2023-02-23T18:18:37.558Z,71.88
2023-02-23T18:21:04.983Z,72.24
2023-02-23T18:23:32.728Z,73.09
2023-02-23T18:26:28.850Z,73.81
2023-02-23T18:28:56.980Z,74.12
2023-02-23T18:31:28.251Z,74.71
2023-02-23T18:33:56.641Z,74.79
2023-02-23T18:36:28.635Z,75.27
2023-02-23T18:38:57.371Z,75.51
2023-02-23T18:41:24.628Z,75.55
2023-02-23T18:43:51.777Z,75.30
2023-02-23T18:46:18.764Z,74.76
2023-02-23T18:48:50.331Z,74.61
2023-02-23T18:51:18.121Z,74.62
2023-02-23T18:53:44.949Z,74.52
2023-02-23T18:56:22.960Z,74.63
2023-02-23T18:58:51.636Z,74.64
2023-02-23T19:01:21.550Z,74.96
2023-02-23T19:03:49.704Z,75.18
2023-02-23T19:06:17.572Z,75.35
2023-02-23T19:08:44.744Z,75.22
2023-02-23T19:11:12.077Z,75.45
2023-02-23T19:13:38.901Z,75.48
2023-02-23T19:16:07.179Z,75.44
2023-02-23T19:18:38.143Z,75.24
2023-02-23T19:21:04.956Z,75.25
2023-02-23T19:23:31.604Z,75.23
2023-02-23T19:26:02.299Z,75.34
2023-02-23T19:28:30.099Z,75.51
2023-02-23T19:31:09.623Z,75.61
2023-02-23T19:33:39.709Z,75.81
2023-02-23T19:36:08.217Z,75.82
2023-02-23T19:38:35.043Z,76.21
2023-02-23T19:41:08.268Z,76.18
2023-02-23T19:43:35.075Z,76.16
2023-02-23T19:46:06.557Z,76.24
2023-02-23T19:48:34.704Z,76.75
2023-02-23T19:51:01.680Z,77.00
2023-02-23T19:53:28.641Z,77.15
2023-02-23T19:56:03.189Z,77.33
2023-02-23T19:58:29.818Z,77.74
2023-02-23T20:00:59.447Z,78.32
2023-02-23T20:03:29.437Z,78.56
2023-02-23T20:05:56.448Z,78.46
2023-02-23T20:08:24.315Z,78.29
2023-02-23T20:10:51.418Z,78.53
2023-02-23T20:13:21.318Z,78.77
2023-02-23T20:15:47.954Z,78.30
2023-02-23T20:18:14.914Z,77.96
2023-02-23T20:20:41.757Z,78.08
2023-02-23T20:23:08.705Z,77.74
2023-02-23T20:25:36.049Z,77.92
2023-02-23T20:28:03.634Z,77.75
2023-02-23T20:30:30.420Z,77.29
2023-02-23T20:32:57.367Z,77.07
2023-02-23T20:35:26.150Z,76.35
2023-02-23T20:37:53.598Z,76.93
2023-02-23T20:40:22.935Z,76.76
2023-02-23T20:42:51.392Z,76.74
2023-02-23T20:45:21.742Z,76.42
2023-02-23T20:47:57.637Z,75.88
2023-02-23T20:50:28.658Z,75.52
2023-02-23T20:52:55.388Z,75.74
2023-02-23T20:55:26.319Z,75.55
2023-02-23T20:57:53.042Z,75.70
2023-02-23T21:00:24.165Z,75.61
2023-02-23T21:02:55.743Z,75.99
2023-02-23T21:05:24.307Z,76.63
2023-02-23T21:07:51.082Z,77.07
2023-02-23T21:10:20.295Z,77.43
2023-02-23T21:12:47.028Z,77.71
2023-02-23T21:15:14.831Z,77.93
2023-02-23T21:17:41.918Z,77.69
2023-02-23T21:20:12.846Z,77.93
2023-02-23T21:22:39.976Z,77.52
2023-02-23T21:25:10.755Z,77.63
2023-02-23T21:27:38.521Z,78.23
2023-02-23T21:30:06.341Z,78.46
2023-02-23T21:32:35.470Z,78.29
2023-02-23T21:35:02.245Z,78.35
2023-02-23T21:37:28.898Z,78.09
2023-02-23T21:39:55.607Z,78.39
2023-02-23T21:42:24.072Z,78.42
2023-02-23T21:44:50.816Z,78.19
2023-02-23T21:47:17.515Z,78.19
2023-02-23T21:49:49.143Z,78.56
2023-02-23T21:52:17.023Z,78.20
2023-02-23T21:54:49.929Z,78.33
2023-02-23T21:57:17.317Z,78.04
2023-02-23T21:59:43.946Z,77.90
2023-02-23T22:02:11.949Z,77.84
2023-02-23T22:04:39.444Z,77.77
2023-02-23T22:07:07.978Z,77.93
2023-02-23T22:09:35.546Z,78.39
2023-02-23T22:12:02.130Z,78.82
2023-02-23T22:14:28.745Z,79.00
2023-02-23T22:16:55.376Z,79.54
2023-02-23T22:19:22.042Z,79.23
2023-02-23T22:21:48.658Z,79.55
2023-02-23T22:24:16.323Z,78.90
2023-02-23T22:26:50.456Z,79.05
2023-02-23T22:29:17.294Z,78.75
2023-02-23T22:31:44.134Z,79.14
2023-02-23T22:34:10.853Z,78.93
2023-02-23T22:36:37.445Z,79.59
2023-02-23T22:39:10.298Z,79.82
2023-02-23T22:41:42.468Z,79.35
2023-02-23T22:44:12.300Z,80.17
2023-02-23T22:46:40.284Z,80.19
2023-02-23T22:49:10.558Z,80.03
2023-02-23T22:51:38.509Z,80.30
2023-02-23T22:54:06.140Z,80.25
2023-02-23T22:56:34.414Z,80.29
2023-02-23T22:59:04.613Z,80.66
2023-02-23T23:01:34.784Z,80.27
2023-02-23T23:04:09.868Z,80.43
2023-02-23T23:06:38.564Z,80.49
2023-02-23T23:09:07.562Z,80.82
2023-02-23T23:11:37.490Z,80.95
2023-02-23T23:14:07.059Z,80.88
2023-02-23T23:16:36.209Z,81.01
2023-02-23T23:19:12.051Z,80.33
2023-02-23T23:21:40.944Z,80.25
2023-02-23T23:24:09.416Z,80.11
2023-02-23T23:26:39.750Z,80.64
2023-02-23T23:29:10.177Z,80.67
2023-02-23T23:31:39.167Z,80.85
2023-02-23T23:34:09.956Z,81.56
2023-02-23T23:36:43.118Z,81.19
2023-02-23T23:39:16.407Z,81.53
2023-02-23T23:41:46.136Z,81.63
2023-02-23T23:44:13.109Z,81.52
2023-02-23T23:46:45.136Z,81.33
2023-02-23T23:49:17.746Z,81.79
2023-02-23T23:51:48.688Z,82.15
2023-02-23T23:54:28.044Z,81.98
2023-02-23T23:56:54.966Z,82.15
2023-02-23T23:59:23.672Z,82.25
